sensor_id;sensor_type;location;lat;lon;timestamp;pressure;altitude;pressure_sealevel;temperature;humidity
4085;BME280;2057;50.858;6.572;2022-10-16T00:01:09;99926.81;;;12.91;100.00
4085;BME280;2057;50.858;6.572;2022-10-16T00:03:37;99920.63;;;12.82;100.00
4085;BME280;2057;50.858;6.572;2022-10-16T00:06:03;99917.44;;;12.90;100.00
4085;BME280;2057;50.858;6.572;2022-10-16T00:08:32;99921.75;;;12.92;100.00
4085;BME280;2057;50.858;6.572;2022-10-16T00:11:05;99920.13;;;12.94;100.00
4085;BME280;2057;50.858;6.572;2022-10-16T00:13:32;99924.38;;;12.94;100.00
4085;BME280;2057;50.858;6.572;2022-10-16T00:15:59;99929.66;;;13.00;100.00
4085;BME280;2057;50.858;6.572;2022-10-16T00:18:26;99923.19;;;13.11;100.00
4085;BME280;2057;50.858;6.572;2022-10-16T00:20:52;99924.53;;;12.98;100.00
4085;BME280;2057;50.858;6.572;2022-10-16T00:23:17;99912.59;;;12.97;100.00
4085;BME280;2057;50.858;6.572;2022-10-16T00:25:43;99910.91;;;12.98;100.00
4085;BME280;2057;50.858;6.572;2022-10-16T00:28:08;99898.09;;;12.95;100.00
4085;BME280;2057;50.858;6.572;2022-10-16T00:30:33;99895.06;;;13.08;100.00
4085;BME280;2057;50.858;6.572;2022-10-16T00:32:59;99891.44;;;13.00;100.00
4085;BME280;2057;50.858;6.572;2022-10-16T00:35:24;99890.72;;;13.04;100.00
4085;BME280;2057;50.858;6.572;2022-10-16T00:37:49;99891.69;;;13.09;100.00
4085;BME280;2057;50.858;6.572;2022-10-16T00:40:15;99898.34;;;13.04;100.00
4085;BME280;2057;50.858;6.572;2022-10-16T00:42:40;99894.22;;;13.08;100.00
4085;BME280;2057;50.858;6.572;2022-10-16T00:45:08;99893.44;;;13.10;100.00
4085;BME280;2057;50.858;6.572;2022-10-16T00:47:39;99900.00;;;13.02;100.00
4085;BME280;2057;50.858;6.572;2022-10-16T00:50:13;99889.41;;;13.18;100.00
4085;BME280;2057;50.858;6.572;2022-10-16T00:52:44;99896.00;;;13.12;100.00
4085;BME280;2057;50.858;6.572;2022-10-16T00:55:11;99908.19;;;13.21;100.00
4085;BME280;2057;50.858;6.572;2022-10-16T00:57:37;99914.63;;;13.09;100.00
4085;BME280;2057;50.858;6.572;2022-10-16T01:00:09;99908.72;;;13.10;100.00
4085;BME280;2057;50.858;6.572;2022-10-16T01:02:35;99896.25;;;13.20;100.00
4085;BME280;2057;50.858;6.572;2022-10-16T01:05:00;99906.19;;;13.10;100.00
4085;BME280;2057;50.858;6.572;2022-10-16T01:07:58;99914.41;;;13.01;100.00
4085;BME280;2057;50.858;6.572;2022-10-16T01:10:59;99916.34;;;13.09;100.00
4085;BME280;2057;50.858;6.572;2022-10-16T01:13:33;99916.19;;;13.04;100.00
4085;BME280;2057;50.858;6.572;2022-10-16T01:16:08;99923.72;;;12.99;100.00
4085;BME280;2057;50.858;6.572;2022-10-16T01:18:59;99925.50;;;13.03;100.00
4085;BME280;2057;50.858;6.572;2022-10-16T01:21:33;99921.97;;;12.98;100.00
4085;BME280;2057;50.858;6.572;2022-10-16T01:29:54;99919.47;;;13.00;100.00
4085;BME280;2057;50.858;6.572;2022-10-16T01:34:57;99929.13;;;13.10;100.00
4085;BME280;2057;50.858;6.572;2022-10-16T01:37:50;99927.13;;;13.01;100.00
4085;BME280;2057;50.858;6.572;2022-10-16T01:40:19;99939.16;;;13.06;100.00
4085;BME280;2057;50.858;6.572;2022-10-16T01:42:56;99942.44;;;13.01;100.00
4085;BME280;2057;50.858;6.572;2022-10-16T01:45:24;99938.03;;;12.96;100.00
4085;BME280;2057;50.858;6.572;2022-10-16T01:47:51;99943.88;;;12.93;100.00
4085;BME280;2057;50.858;6.572;2022-10-16T01:50:38;99943.75;;;12.89;100.00
4085;BME280;2057;50.858;6.572;2022-10-16T01:53:09;99941.97;;;12.86;100.00
4085;BME280;2057;50.858;6.572;2022-10-16T01:55:40;99933.50;;;12.87;100.00
4085;BME280;2057;50.858;6.572;2022-10-16T01:58:10;99930.03;;;12.85;100.00
4085;BME280;2057;50.858;6.572;2022-10-16T02:00:38;99940.19;;;12.83;100.00
4085;BME280;2057;50.858;6.572;2022-10-16T02:03:05;99939.56;;;12.91;100.00
4085;BME280;2057;50.858;6.572;2022-10-16T02:05:50;99939.72;;;12.95;100.00
4085;BME280;2057;50.858;6.572;2022-10-16T02:08:17;99942.16;;;12.92;100.00
4085;BME280;2057;50.858;6.572;2022-10-16T02:10:42;99941.81;;;12.81;100.00
4085;BME280;2057;50.858;6.572;2022-10-16T02:15:39;99939.38;;;12.84;100.00
4085;BME280;2057;50.858;6.572;2022-10-16T02:18:06;99941.41;;;12.95;100.00
4085;BME280;2057;50.858;6.572;2022-10-16T02:20:56;99945.59;;;12.93;100.00
4085;BME280;2057;50.858;6.572;2022-10-16T02:23:35;99939.22;;;12.78;100.00
4085;BME280;2057;50.858;6.572;2022-10-16T02:26:07;99946.41;;;12.92;100.00
4085;BME280;2057;50.858;6.572;2022-10-16T02:28:40;99945.63;;;12.94;100.00
4085;BME280;2057;50.858;6.572;2022-10-16T02:31:09;99953.13;;;12.90;100.00
4085;BME280;2057;50.858;6.572;2022-10-16T02:33:37;99944.97;;;13.01;100.00
4085;BME280;2057;50.858;6.572;2022-10-16T02:36:06;99935.84;;;13.08;100.00
4085;BME280;2057;50.858;6.572;2022-10-16T02:38:33;99956.13;;;13.05;100.00
4085;BME280;2057;50.858;6.572;2022-10-16T02:40:59;99950.06;;;13.01;100.00
4085;BME280;2057;50.858;6.572;2022-10-16T02:43:25;99952.59;;;13.00;100.00
4085;BME280;2057;50.858;6.572;2022-10-16T02:45:51;99956.22;;;13.08;100.00
4085;BME280;2057;50.858;6.572;2022-10-16T02:48:16;99966.25;;;13.02;100.00
4085;BME280;2057;50.858;6.572;2022-10-16T02:50:42;99951.66;;;12.98;100.00
4085;BME280;2057;50.858;6.572;2022-10-16T02:53:07;99958.56;;;13.00;100.00
4085;BME280;2057;50.858;6.572;2022-10-16T02:55:32;99953.72;;;13.10;100.00
4085;BME280;2057;50.858;6.572;2022-10-16T02:57:58;99953.56;;;13.05;100.00
4085;BME280;2057;50.858;6.572;2022-10-16T03:00:23;99938.28;;;13.05;100.00
4085;BME280;2057;50.858;6.572;2022-10-16T03:02:49;99934.91;;;13.06;100.00
4085;BME280;2057;50.858;6.572;2022-10-16T03:05:14;99918.75;;;13.04;100.00
4085;BME280;2057;50.858;6.572;2022-10-16T03:07:40;99927.78;;;12.94;100.00
4085;BME280;2057;50.858;6.572;2022-10-16T03:10:06;99935.56;;;12.99;100.00
4085;BME280;2057;50.858;6.572;2022-10-16T03:12:33;99932.75;;;12.90;100.00
4085;BME280;2057;50.858;6.572;2022-10-16T03:14:59;99924.94;;;12.85;100.00
4085;BME280;2057;50.858;6.572;2022-10-16T03:17:25;99940.44;;;12.91;100.00
4085;BME280;2057;50.858;6.572;2022-10-16T03:19:50;99944.38;;;12.81;100.00
4085;BME280;2057;50.858;6.572;2022-10-16T03:22:16;99944.56;;;12.87;100.00
4085;BME280;2057;50.858;6.572;2022-10-16T03:24:41;99930.94;;;12.85;100.00
4085;BME280;2057;50.858;6.572;2022-10-16T03:27:06;99938.22;;;12.75;100.00
4085;BME280;2057;50.858;6.572;2022-10-16T03:29:32;99946.84;;;12.78;100.00
4085;BME280;2057;50.858;6.572;2022-10-16T03:31:58;99942.75;;;12.83;100.00
4085;BME280;2057;50.858;6.572;2022-10-16T03:34:23;99936.91;;;12.87;100.00
4085;BME280;2057;50.858;6.572;2022-10-16T03:36:49;99938.56;;;12.85;100.00
4085;BME280;2057;50.858;6.572;2022-10-16T03:39:15;99947.75;;;12.80;100.00
4085;BME280;2057;50.858;6.572;2022-10-16T03:41:40;99944.38;;;12.81;100.00
4085;BME280;2057;50.858;6.572;2022-10-16T03:44:06;99957.06;;;12.80;100.00
4085;BME280;2057;50.858;6.572;2022-10-16T03:46:31;99957.88;;;12.79;100.00
4085;BME280;2057;50.858;6.572;2022-10-16T03:48:57;99981.59;;;12.76;100.00
4085;BME280;2057;50.858;6.572;2022-10-16T03:51:22;99986.38;;;12.67;100.00
4085;BME280;2057;50.858;6.572;2022-10-16T03:53:47;99985.56;;;12.68;100.00
4085;BME280;2057;50.858;6.572;2022-10-16T03:56:13;99974.03;;;12.79;100.00
4085;BME280;2057;50.858;6.572;2022-10-16T03:58:38;99964.47;;;12.72;100.00
4085;BME280;2057;50.858;6.572;2022-10-16T04:01:03;99971.41;;;12.76;100.00
4085;BME280;2057;50.858;6.572;2022-10-16T04:03:29;99975.56;;;12.74;100.00
4085;BME280;2057;50.858;6.572;2022-10-16T04:05:54;99966.59;;;12.85;100.00
4085;BME280;2057;50.858;6.572;2022-10-16T04:08:24;99973.75;;;12.70;100.00
4085;BME280;2057;50.858;6.572;2022-10-16T04:10:49;99980.34;;;12.63;100.00
4085;BME280;2057;50.858;6.572;2022-10-16T04:13:15;99984.00;;;12.71;100.00
4085;BME280;2057;50.858;6.572;2022-10-16T04:15:41;99977.81;;;12.65;100.00
4085;BME280;2057;50.858;6.572;2022-10-16T04:18:06;99974.34;;;12.63;100.00
4085;BME280;2057;50.858;6.572;2022-10-16T04:20:32;99973.50;;;12.62;100.00
4085;BME280;2057;50.858;6.572;2022-10-16T04:22:58;99978.59;;;12.62;100.00
4085;BME280;2057;50.858;6.572;2022-10-16T04:25:23;99980.34;;;12.63;100.00
4085;BME280;2057;50.858;6.572;2022-10-16T04:27:48;99982.88;;;12.63;100.00
4085;BME280;2057;50.858;6.572;2022-10-16T04:30:14;99976.75;;;12.58;100.00
4085;BME280;2057;50.858;6.572;2022-10-16T04:32:39;99977.06;;;12.67;100.00
4085;BME280;2057;50.858;6.572;2022-10-16T04:35:07;99987.25;;;12.67;100.00
4085;BME280;2057;50.858;6.572;2022-10-16T04:37:35;99981.19;;;12.64;100.00
4085;BME280;2057;50.858;6.572;2022-10-16T04:40:00;99987.31;;;12.69;100.00
4085;BME280;2057;50.858;6.572;2022-10-16T04:42:26;99989.13;;;12.73;100.00
4085;BME280;2057;50.858;6.572;2022-10-16T04:44:51;100007.06;;;12.76;100.00
4085;BME280;2057;50.858;6.572;2022-10-16T04:47:16;100013.88;;;12.77;100.00
4085;BME280;2057;50.858;6.572;2022-10-16T04:49:42;100018.25;;;12.81;100.00
4085;BME280;2057;50.858;6.572;2022-10-16T04:52:09;100001.91;;;12.75;100.00
4085;BME280;2057;50.858;6.572;2022-10-16T04:54:35;100004.41;;;12.73;100.00
4085;BME280;2057;50.858;6.572;2022-10-16T04:57:00;100013.66;;;12.71;100.00
4085;BME280;2057;50.858;6.572;2022-10-16T04:59:25;100017.59;;;12.61;100.00
4085;BME280;2057;50.858;6.572;2022-10-16T05:01:51;100022.59;;;12.58;100.00
4085;BME280;2057;50.858;6.572;2022-10-16T05:04:16;100031.13;;;12.59;100.00
4085;BME280;2057;50.858;6.572;2022-10-16T05:06:42;100030.00;;;12.50;100.00
4085;BME280;2057;50.858;6.572;2022-10-16T05:09:08;100025.97;;;12.57;100.00
4085;BME280;2057;50.858;6.572;2022-10-16T05:11:33;100036.69;;;12.48;100.00
4085;BME280;2057;50.858;6.572;2022-10-16T05:13:59;100029.25;;;12.29;100.00
4085;BME280;2057;50.858;6.572;2022-10-16T05:16:24;100027.81;;;12.37;100.00
4085;BME280;2057;50.858;6.572;2022-10-16T05:18:51;100032.59;;;12.28;100.00
4085;BME280;2057;50.858;6.572;2022-10-16T05:21:16;100041.28;;;12.33;100.00
4085;BME280;2057;50.858;6.572;2022-10-16T05:23:41;100042.25;;;12.12;100.00
4085;BME280;2057;50.858;6.572;2022-10-16T05:26:07;100048.97;;;12.10;100.00
4085;BME280;2057;50.858;6.572;2022-10-16T05:28:33;100064.56;;;12.19;100.00
4085;BME280;2057;50.858;6.572;2022-10-16T05:30:58;100056.50;;;12.07;100.00
4085;BME280;2057;50.858;6.572;2022-10-16T05:33:25;100055.69;;;12.08;100.00
4085;BME280;2057;50.858;6.572;2022-10-16T05:35:51;100051.34;;;12.05;100.00
4085;BME280;2057;50.858;6.572;2022-10-16T05:38:17;100043.31;;;12.17;100.00
4085;BME280;2057;50.858;6.572;2022-10-16T05:40:43;100050.81;;;12.14;100.00
4085;BME280;2057;50.858;6.572;2022-10-16T05:43:08;100052.34;;;12.09;100.00
4085;BME280;2057;50.858;6.572;2022-10-16T05:45:34;100062.09;;;11.98;100.00
4085;BME280;2057;50.858;6.572;2022-10-16T05:47:59;100067.63;;;11.88;100.00
4085;BME280;2057;50.858;6.572;2022-10-16T05:50:28;100061.69;;;11.87;100.00
4085;BME280;2057;50.858;6.572;2022-10-16T05:52:53;100073.97;;;11.98;100.00
4085;BME280;2057;50.858;6.572;2022-10-16T05:55:18;100085.59;;;11.92;100.00
4085;BME280;2057;50.858;6.572;2022-10-16T05:57:43;100077.50;;;12.01;100.00
4085;BME280;2057;50.858;6.572;2022-10-16T06:00:10;100090.59;;;11.89;100.00
4085;BME280;2057;50.858;6.572;2022-10-16T06:02:36;100102.59;;;11.93;100.00
4085;BME280;2057;50.858;6.572;2022-10-16T06:05:01;100108.66;;;11.73;100.00
4085;BME280;2057;50.858;6.572;2022-10-16T06:07:27;100102.28;;;11.61;100.00
4085;BME280;2057;50.858;6.572;2022-10-16T06:09:52;100109.84;;;11.60;100.00
4085;BME280;2057;50.858;6.572;2022-10-16T06:12:18;100113.25;;;11.60;100.00
4085;BME280;2057;50.858;6.572;2022-10-16T06:14:45;100104.38;;;11.72;100.00
4085;BME280;2057;50.858;6.572;2022-10-16T06:17:14;100100.31;;;11.77;100.00
4085;BME280;2057;50.858;6.572;2022-10-16T06:19:39;100108.50;;;11.70;100.00
4085;BME280;2057;50.858;6.572;2022-10-16T06:22:05;100112.84;;;11.72;100.00
4085;BME280;2057;50.858;6.572;2022-10-16T06:24:30;100117.31;;;11.78;100.00
4085;BME280;2057;50.858;6.572;2022-10-16T06:26:56;100134.69;;;11.67;100.00
4085;BME280;2057;50.858;6.572;2022-10-16T06:29:21;100134.66;;;11.66;100.00
4085;BME280;2057;50.858;6.572;2022-10-16T06:31:46;100139.75;;;11.88;100.00
4085;BME280;2057;50.858;6.572;2022-10-16T06:34:12;100142.91;;;11.83;100.00
4085;BME280;2057;50.858;6.572;2022-10-16T06:36:38;100142.34;;;11.90;100.00
4085;BME280;2057;50.858;6.572;2022-10-16T06:39:04;100154.78;;;11.82;100.00
4085;BME280;2057;50.858;6.572;2022-10-16T06:41:30;100147.16;;;11.82;100.00
4085;BME280;2057;50.858;6.572;2022-10-16T06:43:56;100155.22;;;11.95;100.00
4085;BME280;2057;50.858;6.572;2022-10-16T06:46:23;100153.78;;;12.00;100.00
4085;BME280;2057;50.858;6.572;2022-10-16T06:48:49;100154.75;;;12.03;100.00
4085;BME280;2057;50.858;6.572;2022-10-16T06:51:16;100148.09;;;12.07;100.00
4085;BME280;2057;50.858;6.572;2022-10-16T06:53:47;100150.66;;;12.07;100.00
4085;BME280;2057;50.858;6.572;2022-10-16T06:56:19;100168.91;;;12.19;100.00
4085;BME280;2057;50.858;6.572;2022-10-16T06:58:45;100168.16;;;12.22;100.00
4085;BME280;2057;50.858;6.572;2022-10-16T07:01:13;100170.28;;;12.34;100.00
4085;BME280;2057;50.858;6.572;2022-10-16T07:03:43;100169.59;;;12.38;100.00
4085;BME280;2057;50.858;6.572;2022-10-16T07:06:10;100174.19;;;12.48;100.00
4085;BME280;2057;50.858;6.572;2022-10-16T07:08:38;100175.50;;;12.61;100.00
4085;BME280;2057;50.858;6.572;2022-10-16T07:11:09;100177.66;;;12.75;100.00
4085;BME280;2057;50.858;6.572;2022-10-16T07:13:35;100192.28;;;12.80;100.00
4085;BME280;2057;50.858;6.572;2022-10-16T07:16:09;100196.09;;;12.92;100.00
4085;BME280;2057;50.858;6.572;2022-10-16T07:18:35;100199.66;;;12.97;100.00
4085;BME280;2057;50.858;6.572;2022-10-16T07:23:29;100204.00;;;12.99;100.00
4085;BME280;2057;50.858;6.572;2022-10-16T07:25:55;100208.34;;;13.02;100.00
4085;BME280;2057;50.858;6.572;2022-10-16T07:28:20;100208.66;;;13.11;100.00
4085;BME280;2057;50.858;6.572;2022-10-16T07:30:46;100214.56;;;13.10;100.00
4085;BME280;2057;50.858;6.572;2022-10-16T07:33:11;100218.94;;;13.14;100.00
4085;BME280;2057;50.858;6.572;2022-10-16T07:35:36;100213.19;;;13.20;100.00
4085;BME280;2057;50.858;6.572;2022-10-16T07:38:02;100226.81;;;13.21;100.00
4085;BME280;2057;50.858;6.572;2022-10-16T07:40:27;100236.22;;;13.22;100.00
4085;BME280;2057;50.858;6.572;2022-10-16T07:42:53;100244.88;;;13.27;100.00
4085;BME280;2057;50.858;6.572;2022-10-16T07:45:18;100243.13;;;13.26;100.00
4085;BME280;2057;50.858;6.572;2022-10-16T07:47:43;100244.25;;;13.34;100.00
4085;BME280;2057;50.858;6.572;2022-10-16T07:50:09;100244.25;;;13.34;100.00
4085;BME280;2057;50.858;6.572;2022-10-16T07:52:34;100248.50;;;13.33;100.00
4085;BME280;2057;50.858;6.572;2022-10-16T07:54:59;100250.16;;;13.33;100.00
4085;BME280;2057;50.858;6.572;2022-10-16T07:57:24;100252.97;;;13.39;100.00
4085;BME280;2057;50.858;6.572;2022-10-16T07:59:50;100259.19;;;13.47;100.00
4085;BME280;2057;50.858;6.572;2022-10-16T08:02:15;100254.78;;;13.43;100.00
4085;BME280;2057;50.858;6.572;2022-10-16T08:04:41;100257.69;;;13.54;100.00
4085;BME280;2057;50.858;6.572;2022-10-16T08:07:07;100258.25;;;13.71;100.00
4085;BME280;2057;50.858;6.572;2022-10-16T08:09:33;100267.03;;;13.79;100.00
4085;BME280;2057;50.858;6.572;2022-10-16T08:11:58;100270.88;;;13.94;100.00
4085;BME280;2057;50.858;6.572;2022-10-16T08:14:23;100267.25;;;14.13;100.00
4085;BME280;2057;50.858;6.572;2022-10-16T08:16:48;100271.22;;;14.32;100.00
4085;BME280;2057;50.858;6.572;2022-10-16T08:19:14;100272.50;;;14.48;100.00
4085;BME280;2057;50.858;6.572;2022-10-16T08:21:41;100278.50;;;14.49;100.00
4085;BME280;2057;50.858;6.572;2022-10-16T08:24:06;100281.41;;;14.61;100.00
4085;BME280;2057;50.858;6.572;2022-10-16T08:26:32;100286.50;;;14.61;100.00
4085;BME280;2057;50.858;6.572;2022-10-16T08:28:57;100288.47;;;14.68;100.00
4085;BME280;2057;50.858;6.572;2022-10-16T08:31:23;100288.75;;;14.78;100.00
4085;BME280;2057;50.858;6.572;2022-10-16T08:33:49;100294.03;;;14.84;100.00
4085;BME280;2057;50.858;6.572;2022-10-16T08:36:16;100301.13;;;14.94;100.00
4085;BME280;2057;50.858;6.572;2022-10-16T08:38:41;100304.69;;;14.99;100.00
4085;BME280;2057;50.858;6.572;2022-10-16T08:43:55;100308.22;;;15.04;100.00
4085;BME280;2057;50.858;6.572;2022-10-16T08:46:38;100319.72;;;15.19;100.00
4085;BME280;2057;50.858;6.572;2022-10-16T08:49:12;100309.75;;;15.30;100.00
4085;BME280;2057;50.858;6.572;2022-10-16T08:51:41;100323.47;;;15.32;100.00
4085;BME280;2057;50.858;6.572;2022-10-16T08:54:36;100334.56;;;15.32;100.00
4085;BME280;2057;50.858;6.572;2022-10-16T08:57:20;100329.78;;;15.45;100.00
4085;BME280;2057;50.858;6.572;2022-10-16T08:59:45;100323.88;;;15.47;100.00
4085;BME280;2057;50.858;6.572;2022-10-16T09:12:26;100323.25;;;15.90;92.84
4085;BME280;2057;50.858;6.572;2022-10-16T09:15:22;100318.25;;;15.94;95.39
4085;BME280;2057;50.858;6.572;2022-10-16T09:20:28;100332.41;;;16.15;91.07
4085;BME280;2057;50.858;6.572;2022-10-16T09:23:17;100333.59;;;16.31;91.85
4085;BME280;2057;50.858;6.572;2022-10-16T09:25:45;100331.25;;;16.40;91.09
4085;BME280;2057;50.858;6.572;2022-10-16T09:28:12;100339.78;;;16.39;89.97
4085;BME280;2057;50.858;6.572;2022-10-16T09:30:38;100338.06;;;16.38;88.66
4085;BME280;2057;50.858;6.572;2022-10-16T09:33:05;100338.22;;;16.46;90.20
4085;BME280;2057;50.858;6.572;2022-10-16T09:35:35;100340.16;;;16.55;90.24
4085;BME280;2057;50.858;6.572;2022-10-16T09:38:02;100336.78;;;16.59;90.20
4085;BME280;2057;50.858;6.572;2022-10-16T09:40:36;100339.53;;;16.67;89.46
4085;BME280;2057;50.858;6.572;2022-10-16T09:43:25;100347.53;;;16.81;87.66
4085;BME280;2057;50.858;6.572;2022-10-16T09:45:55;100345.91;;;16.86;85.21
4085;BME280;2057;50.858;6.572;2022-10-16T09:48:26;100348.78;;;16.98;86.23
4085;BME280;2057;50.858;6.572;2022-10-16T09:50:59;100352.38;;;17.06;84.78
4085;BME280;2057;50.858;6.572;2022-10-16T09:54:19;100352.47;;;17.13;83.66
4085;BME280;2057;50.858;6.572;2022-10-16T09:56:43;100345.34;;;16.98;82.88
4085;BME280;2057;50.858;6.572;2022-10-16T09:59:13;100336.00;;;17.01;84.00
4085;BME280;2057;50.858;6.572;2022-10-16T10:01:41;100339.56;;;17.08;83.30
4085;BME280;2057;50.858;6.572;2022-10-16T10:04:08;100339.63;;;17.11;82.20
4085;BME280;2057;50.858;6.572;2022-10-16T10:06:37;100336.28;;;17.17;81.69
4085;BME280;2057;50.858;6.572;2022-10-16T10:11:54;100330.84;;;17.44;81.37
4085;BME280;2057;50.858;6.572;2022-10-16T10:14:41;100320.50;;;17.41;79.72
4085;BME280;2057;50.858;6.572;2022-10-16T10:17:11;100326.53;;;17.43;79.55
4085;BME280;2057;50.858;6.572;2022-10-16T10:33:49;100352.13;;;17.40;78.67
4085;BME280;2057;50.858;6.572;2022-10-16T10:36:37;100343.03;;;17.56;78.67
4085;BME280;2057;50.858;6.572;2022-10-16T10:39:14;100342.22;;;17.59;79.01
4085;BME280;2057;50.858;6.572;2022-10-16T10:44:57;100339.03;;;17.72;79.30
4085;BME280;2057;50.858;6.572;2022-10-16T10:50:35;100333.03;;;17.73;77.58
4085;BME280;2057;50.858;6.572;2022-10-16T10:53:16;100345.25;;;17.86;78.39
4085;BME280;2057;50.858;6.572;2022-10-16T10:55:49;100350.41;;;17.86;78.94
4085;BME280;2057;50.858;6.572;2022-10-16T11:01:02;100347.50;;;17.68;78.00
4085;BME280;2057;50.858;6.572;2022-10-16T11:06:32;100357.34;;;17.92;77.51
4085;BME280;2057;50.858;6.572;2022-10-16T11:09:06;100357.09;;;17.77;78.78
4085;BME280;2057;50.858;6.572;2022-10-16T11:11:39;100353.03;;;17.90;77.42
4085;BME280;2057;50.858;6.572;2022-10-16T11:14:23;100354.91;;;18.00;76.45
4085;BME280;2057;50.858;6.572;2022-10-16T11:16:59;100354.38;;;18.19;76.85
4085;BME280;2057;50.858;6.572;2022-10-16T11:19:41;100358.91;;;18.34;75.30
4085;BME280;2057;50.858;6.572;2022-10-16T11:27:18;100364.94;;;18.38;75.31
4085;BME280;2057;50.858;6.572;2022-10-16T11:29:50;100371.91;;;18.47;75.67
4085;BME280;2057;50.858;6.572;2022-10-16T11:32:23;100368.44;;;18.43;75.67
4085;BME280;2057;50.858;6.572;2022-10-16T11:34:57;100371.81;;;18.39;75.09
4085;BME280;2057;50.858;6.572;2022-10-16T11:37:27;100378.78;;;18.46;74.19
4085;BME280;2057;50.858;6.572;2022-10-16T11:40:00;100371.25;;;18.59;75.80
4085;BME280;2057;50.858;6.572;2022-10-16T11:42:37;100373.16;;;18.74;72.90
4085;BME280;2057;50.858;6.572;2022-10-16T11:47:50;100372.38;;;18.79;70.54
4085;BME280;2057;50.858;6.572;2022-10-16T11:50:28;100368.19;;;18.86;72.35
4085;BME280;2057;50.858;6.572;2022-10-16T11:55:31;100373.47;;;18.94;71.11
4085;BME280;2057;50.858;6.572;2022-10-16T11:58:04;100377.63;;;18.89;69.34
4085;BME280;2057;50.858;6.572;2022-10-16T12:00:43;100375.03;;;18.86;70.59
4085;BME280;2057;50.858;6.572;2022-10-16T12:03:18;100377.00;;;19.04;69.04
4085;BME280;2057;50.858;6.572;2022-10-16T12:08:45;100367.69;;;19.13;69.13
4085;BME280;2057;50.858;6.572;2022-10-16T12:11:32;100370.19;;;19.06;70.63
4085;BME280;2057;50.858;6.572;2022-10-16T12:19:28;100375.38;;;19.10;66.69
4085;BME280;2057;50.858;6.572;2022-10-16T12:22:00;100372.81;;;19.10;67.08
4085;BME280;2057;50.858;6.572;2022-10-16T12:26:57;100369.28;;;19.05;69.23
4085;BME280;2057;50.858;6.572;2022-10-16T12:29:37;100362.34;;;19.00;70.94
4085;BME280;2057;50.858;6.572;2022-10-16T12:32:35;100356.53;;;19.13;67.54
4085;BME280;2057;50.858;6.572;2022-10-16T12:35:02;100362.53;;;19.13;66.29
4085;BME280;2057;50.858;6.572;2022-10-16T12:37:36;100353.91;;;19.08;71.20
4085;BME280;2057;50.858;6.572;2022-10-16T12:40:31;100372.63;;;18.96;69.56
4085;BME280;2057;50.858;6.572;2022-10-16T12:42:57;100378.75;;;19.06;67.77
4085;BME280;2057;50.858;6.572;2022-10-16T12:45:31;100369.19;;;18.96;68.57
4085;BME280;2057;50.858;6.572;2022-10-16T12:48:02;100366.59;;;18.93;69.21
4085;BME280;2057;50.858;6.572;2022-10-16T12:50:34;100377.13;;;19.15;69.26
4085;BME280;2057;50.858;6.572;2022-10-16T12:53:01;100373.03;;;19.32;67.47
4085;BME280;2057;50.858;6.572;2022-10-16T12:55:41;100367.03;;;19.33;66.03
4085;BME280;2057;50.858;6.572;2022-10-16T13:01:10;100361.13;;;19.40;66.13
4085;BME280;2057;50.858;6.572;2022-10-16T13:09:14;100354.06;;;19.24;71.41
4085;BME280;2057;50.858;6.572;2022-10-16T13:14:36;100364.38;;;19.25;72.07
4085;BME280;2057;50.858;6.572;2022-10-16T13:20:21;100377.56;;;19.53;68.09
4085;BME280;2057;50.858;6.572;2022-10-16T13:23:13;100366.59;;;19.74;68.03
4085;BME280;2057;50.858;6.572;2022-10-16T13:28:28;100368.31;;;19.72;67.46
4085;BME280;2057;50.858;6.572;2022-10-16T13:30:58;100374.41;;;19.84;68.90
4085;BME280;2057;50.858;6.572;2022-10-16T13:33:31;100365.16;;;19.98;69.47
4085;BME280;2057;50.858;6.572;2022-10-16T13:35:58;100368.56;;;20.00;69.62
4085;BME280;2057;50.858;6.572;2022-10-16T13:38:28;100366.75;;;19.87;69.21
4085;BME280;2057;50.858;6.572;2022-10-16T13:41:05;100365.03;;;19.86;69.82
4085;BME280;2057;50.858;6.572;2022-10-16T13:43:35;100357.34;;;19.90;67.96
4085;BME280;2057;50.858;6.572;2022-10-16T13:46:11;100368.56;;;20.00;67.99
4085;BME280;2057;50.858;6.572;2022-10-16T13:48:37;100368.34;;;19.75;69.40
4085;BME280;2057;50.858;6.572;2022-10-16T13:51:17;100369.22;;;19.76;70.27
4085;BME280;2057;50.858;6.572;2022-10-16T13:53:43;100364.00;;;19.73;69.80
4085;BME280;2057;50.858;6.572;2022-10-16T13:56:15;100366.59;;;19.74;70.70
4085;BME280;2057;50.858;6.572;2022-10-16T13:58:41;100369.25;;;19.81;70.33
4085;BME280;2057;50.858;6.572;2022-10-16T14:04:06;100373.38;;;19.66;72.13
4085;BME280;2057;50.858;6.572;2022-10-16T14:06:32;100375.81;;;19.52;71.94
4085;BME280;2057;50.858;6.572;2022-10-16T14:09:03;100373.25;;;19.51;72.60
4085;BME280;2057;50.858;6.572;2022-10-16T14:11:31;100364.53;;;19.39;75.39
4085;BME280;2057;50.858;6.572;2022-10-16T14:13:57;100364.63;;;19.46;75.06
4085;BME280;2057;50.858;6.572;2022-10-16T14:16:27;100362.88;;;19.44;76.09
4085;BME280;2057;50.858;6.572;2022-10-16T14:19:02;100359.47;;;19.46;75.96
4085;BME280;2057;50.858;6.572;2022-10-16T14:21:31;100363.69;;;19.37;76.73
4085;BME280;2057;50.858;6.572;2022-10-16T14:23:57;100361.00;;;19.31;75.97
4085;BME280;2057;50.858;6.572;2022-10-16T14:26:24;100355.84;;;19.30;75.87
4085;BME280;2057;50.858;6.572;2022-10-16T14:29:10;100354.03;;;19.21;76.39
4085;BME280;2057;50.858;6.572;2022-10-16T14:31:39;100355.75;;;19.19;77.19
4085;BME280;2057;50.858;6.572;2022-10-16T14:34:23;100366.16;;;19.28;78.90
4085;BME280;2057;50.858;6.572;2022-10-16T14:36:49;100368.84;;;19.39;77.81
4085;BME280;2057;50.858;6.572;2022-10-16T14:39:20;100370.47;;;19.31;75.72
4085;BME280;2057;50.858;6.572;2022-10-16T14:41:48;100373.97;;;19.39;76.93
4085;BME280;2057;50.858;6.572;2022-10-16T14:44:14;100379.22;;;19.48;78.22
4085;BME280;2057;50.858;6.572;2022-10-16T14:46:42;100367.25;;;19.53;79.03
4085;BME280;2057;50.858;6.572;2022-10-16T14:51:34;100368.03;;;19.44;78.10
4085;BME280;2057;50.858;6.572;2022-10-16T14:54:00;100370.66;;;19.51;77.89
4085;BME280;2057;50.858;6.572;2022-10-16T14:56:30;100371.56;;;19.56;76.73
4085;BME280;2057;50.858;6.572;2022-10-16T14:58:56;100364.78;;;19.61;76.21
4085;BME280;2057;50.858;6.572;2022-10-16T15:01:22;100363.97;;;19.68;77.64